Time;durP1;ratioP1;P1;durP2;ratioP2;P2;SDS_P1;SDS_P2;PMS_P1;PMS_P2;Temp;Humidity;BMP_temperature;BMP_pressure;BME280_temperature;BME280_humidity;BME280_pressure;Samples;Min_cycle;Max_cycle;Signal;HPM_P1;HPM_P2
2022/06/24 00:02:17;;;;;;;6.18;3.10;;;;;;;;;;5049207;28;20489;-80
2022/06/24 00:04:51;;;;;;;5.70;3.30;;;;;;;;;;5050706;28;20056;-78
2022/06/24 00:07:19;;;;;;;5.30;2.67;;;;;;;;;;5049048;28;20055;-81
2022/06/24 00:09:44;;;;;;;4.50;2.70;;;;;;;;;;5049839;28;20042;-79
2022/06/24 00:12:12;;;;;;;4.53;2.60;;;;;;;;;;5049230;28;20036;-79
2022/06/24 00:14:40;;;;;;;13.90;3.28;;;;;;;;;;5048932;28;20068;-79
2022/06/24 00:17:13;;;;;;;8.57;2.75;;;;;;;;;;5048344;28;20089;-79
2022/06/24 00:20:03;;;;;;;5.13;2.55;;;;;;;;;;5032755;28;20057;-79
2022/06/24 00:22:30;;;;;;;6.97;2.83;;;;;;;;;;5056590;28;20052;-80
2022/06/24 00:25:07;;;;;;;6.55;5.07;;;;;;;;;;5068405;28;20062;-78
2022/06/24 00:27:33;;;;;;;6.75;3.20;;;;;;;;;;5069885;28;20023;-79
2022/06/24 00:30:07;;;;;;;4.88;3.00;;;;;;;;;;5070006;28;20031;-79
2022/06/24 00:32:33;;;;;;;5.03;2.47;;;;;;;;;;5072832;28;20039;-79
2022/06/24 00:35:10;;;;;;;5.72;3.10;;;;;;;;;;5072361;28;20028;-79
2022/06/24 00:37:38;;;;;;;5.25;2.72;;;;;;;;;;5072414;28;20032;-78
2022/06/24 00:40:09;;;;;;;4.55;2.55;;;;;;;;;;5073502;28;20024;-80
2022/06/24 00:42:44;;;;;;;3.28;2.83;;;;;;;;;;5074625;28;20024;-79
2022/06/24 00:45:40;;;;;;;4.00;3.00;;;;;;;;;;5076652;28;20029;-79
2022/06/24 00:48:15;;;;;;;2.75;2.55;;;;;;;;;;5075026;28;20138;-78
2022/06/24 00:50:46;;;;;;;11.82;3.92;;;;;;;;;;5072617;28;20021;-79
2022/06/24 00:53:12;;;;;;;7.47;3.20;;;;;;;;;;5074083;28;20040;-79
2022/06/24 00:55:41;;;;;;;3.10;2.80;;;;;;;;;;5072568;28;20523;-78
2022/06/24 00:58:12;;;;;;;4.78;2.90;;;;;;;;;;5071538;28;20668;-78
2022/06/24 01:00:40;;;;;;;;;;;;;;;;;;5072185;28;20116;-79
2022/06/24 01:03:06;;;;;;;5.38;2.90;;;;;;;;;;5072936;28;19908;-75
2022/06/24 01:05:32;;;;;;;4.85;3.13;;;;;;;;;;5071295;28;20111;-79
2022/06/24 01:08:05;;;;;;;5.80;2.83;;;;;;;;;;5071488;28;20032;-78
2022/06/24 01:10:30;;;;;;;3.33;2.95;;;;;;;;;;5071289;28;20394;-79
2022/06/24 01:12:56;;;;;;;5.35;3.00;;;;;;;;;;5074198;28;20021;-77
2022/06/24 01:15:21;;;;;;;4.10;2.90;;;;;;;;;;5073286;28;20025;-78
2022/06/24 01:17:47;;;;;;;3.30;2.60;;;;;;;;;;5071599;28;20123;-77
2022/06/24 01:20:12;;;;;;;4.93;2.97;;;;;;;;;;5074840;28;20024;-79
2022/06/24 01:22:39;;;;;;;10.00;3.80;;;;;;;;;;5067077;28;20103;-76
2022/06/24 01:25:06;;;;;;;3.15;2.88;;;;;;;;;;5055692;28;20048;-79
2022/06/24 01:27:31;;;;;;;3.88;3.40;;;;;;;;;;5054940;28;20472;-79
2022/06/24 01:29:57;;;;;;;8.48;3.40;;;;;;;;;;5056744;28;20029;-80
2022/06/24 01:32:22;;;;;;;6.68;2.83;;;;;;;;;;5056279;28;20032;-78
2022/06/24 01:34:48;;;;;;;3.35;2.80;;;;;;;;;;5058651;28;20389;-79
2022/06/24 01:37:14;;;;;;;5.93;3.20;;;;;;;;;;5058016;28;20090;-79
2022/06/24 01:39:40;;;;;;;4.78;3.00;;;;;;;;;;5058283;28;20025;-79
2022/06/24 01:42:07;;;;;;;3.67;3.10;;;;;;;;;;5054127;28;20021;-79
2022/06/24 01:44:33;;;;;;;7.40;3.40;;;;;;;;;;5053383;28;20037;-80
2022/06/24 01:46:59;;;;;;;7.53;3.20;;;;;;;;;;5052697;28;20040;-79
2022/06/24 01:49:24;;;;;;;7.82;3.95;;;;;;;;;;5050660;28;20082;-79
2022/06/24 01:51:53;;;;;;;5.53;3.65;;;;;;;;;;5051891;28;20532;-79
2022/06/24 01:54:18;;;;;;;7.80;3.35;;;;;;;;;;5050315;28;20444;-78
2022/06/24 01:56:44;;;;;;;8.73;4.47;;;;;;;;;;5050152;28;20120;-79
2022/06/24 01:59:09;;;;;;;3.70;3.38;;;;;;;;;;5050048;28;20033;-78
2022/06/24 02:01:35;;;;;;;4.65;3.65;;;;;;;;;;5050547;28;20064;-76
2022/06/24 02:04:00;;;;;;;7.47;3.70;;;;;;;;;;5052075;28;20021;-79
2022/06/24 02:06:26;;;;;;;5.03;3.70;;;;;;;;;;5057960;28;20056;-78
2022/06/24 02:08:52;;;;;;;6.18;3.45;;;;;;;;;;5066645;28;20080;-77
2022/06/24 02:14:23;;;;;;;4.15;3.08;;;;;;;;;;4989149;28;20046;-78
2022/06/24 02:16:49;;;;;;;7.72;3.70;;;;;;;;;;4973118;28;20088;-79
2022/06/24 02:19:14;;;;;;;11.50;3.72;;;;;;;;;;5017390;28;20115;-78
2022/06/24 02:21:40;;;;;;;10.82;4.43;;;;;;;;;;5050290;28;20085;-78
2022/06/24 02:24:06;;;;;;;7.57;3.63;;;;;;;;;;5070905;28;20468;-79
2022/06/24 02:26:32;;;;;;;4.28;3.88;;;;;;;;;;5070490;28;20388;-78
2022/06/24 02:28:57;;;;;;;5.78;3.50;;;;;;;;;;5069274;28;20039;-78
2022/06/24 02:31:23;;;;;;;7.60;3.72;;;;;;;;;;5070307;28;20070;-77
2022/06/24 02:33:49;;;;;;;15.90;4.40;;;;;;;;;;5069498;28;20040;-79
2022/06/24 02:36:15;;;;;;;24.35;4.72;;;;;;;;;;5070647;28;20103;-79
2022/06/24 02:38:41;;;;;;;6.80;3.60;;;;;;;;;;5069366;28;20031;-79
2022/06/24 02:41:07;;;;;;;4.85;3.33;;;;;;;;;;5071108;28;20380;-79
2022/06/24 02:43:35;;;;;;;7.55;4.15;;;;;;;;;;5070430;28;20024;-79
2022/06/24 02:46:03;;;;;;;6.65;3.97;;;;;;;;;;5070685;28;20032;-78
2022/06/24 02:48:29;;;;;;;38.13;9.43;;;;;;;;;;5069231;28;20442;-78
2022/06/24 02:50:57;;;;;;;9.55;4.68;;;;;;;;;;5082126;28;20027;-77
2022/06/24 02:53:27;;;;;;;6.40;4.15;;;;;;;;;;5077730;28;20114;-79
2022/06/24 02:56:04;;;;;;;7.88;4.32;;;;;;;;;;5069169;28;20141;-78
2022/06/24 02:58:33;;;;;;;4.47;4.07;;;;;;;;;;5070401;28;20119;-78
2022/06/24 03:01:01;;;;;;;8.95;4.03;;;;;;;;;;5070752;28;20039;-79
2022/06/24 03:03:27;;;;;;;7.78;4.45;;;;;;;;;;5069670;28;20024;-78
2022/06/24 03:05:53;;;;;;;6.30;4.55;;;;;;;;;;5069408;28;20461;-79
2022/06/24 03:08:26;;;;;;;6.53;4.40;;;;;;;;;;5070348;28;20032;-78
2022/06/24 03:10:52;;;;;;;6.07;5.25;;;;;;;;;;5068885;28;20032;-79
2022/06/24 03:13:18;;;;;;;11.02;4.57;;;;;;;;;;5070196;28;20043;-78
2022/06/24 03:15:45;;;;;;;13.02;4.78;;;;;;;;;;5068718;28;20071;-79
2022/06/24 03:18:11;;;;;;;12.80;5.35;;;;;;;;;;5068723;28;20109;-78
2022/06/24 03:20:37;;;;;;;10.50;5.32;;;;;;;;;;5070691;28;20036;-79
2022/06/24 03:23:05;;;;;;;11.07;5.40;;;;;;;;;;5055679;28;20632;-79
2022/06/24 03:25:31;;;;;;;12.98;4.82;;;;;;;;;;5049887;28;20028;-78
2022/06/24 03:27:57;;;;;;;9.00;5.22;;;;;;;;;;5048650;28;20481;-79
2022/06/24 03:30:23;;;;;;;8.93;4.68;;;;;;;;;;5048223;28;20017;-78
2022/06/24 03:32:49;;;;;;;8.60;4.28;;;;;;;;;;5048132;28;20090;-78
2022/06/24 03:35:15;;;;;;;7.13;4.50;;;;;;;;;;5047885;28;20028;-76
2022/06/24 03:37:40;;;;;;;11.93;4.75;;;;;;;;;;5049582;28;20044;-78
2022/06/24 03:40:06;;;;;;;8.23;5.00;;;;;;;;;;5048116;28;20060;-78
2022/06/24 03:42:32;;;;;;;11.00;5.50;;;;;;;;;;5048100;28;20455;-78
2022/06/24 03:44:58;;;;;;;9.00;6.93;;;;;;;;;;5048455;28;20028;-78
2022/06/24 03:47:23;;;;;;;11.98;5.38;;;;;;;;;;5048171;28;20038;-78
2022/06/24 03:49:52;;;;;;;8.27;4.55;;;;;;;;;;5049841;28;20060;-78
2022/06/24 03:52:18;;;;;;;11.25;4.85;;;;;;;;;;5047958;28;20061;-78
2022/06/24 03:54:43;;;;;;;11.98;5.07;;;;;;;;;;5049607;28;20477;-78
2022/06/24 03:57:09;;;;;;;15.93;5.22;;;;;;;;;;5049476;28;20037;-80
2022/06/24 03:59:34;;;;;;;9.52;5.40;;;;;;;;;;5049208;28;20435;-78
2022/06/24 04:01:59;;;;;;;10.63;6.03;;;;;;;;;;5048278;28;20036;-79
2022/06/24 04:04:25;;;;;;;9.18;6.13;;;;;;;;;;5048228;28;20140;-79
2022/06/24 04:06:51;;;;;;;11.30;5.53;;;;;;;;;;5052189;28;20040;-80
2022/06/24 04:09:16;;;;;;;6.82;6.15;;;;;;;;;;5053581;28;20036;-75
2022/06/24 04:11:42;;;;;;;9.18;6.47;;;;;;;;;;5053664;28;20098;-79
2022/06/24 04:14:07;;;;;;;10.75;5.65;;;;;;;;;;5052288;28;20097;-79
2022/06/24 04:16:33;;;;;;;7.68;5.03;;;;;;;;;;5053617;28;20037;-78
2022/06/24 04:18:58;;;;;;;9.27;4.93;;;;;;;;;;5052081;28;20061;-78
2022/06/24 04:21:24;;;;;;;9.15;5.07;;;;;;;;;;5053695;28;20032;-79
2022/06/24 04:23:50;;;;;;;7.50;5.03;;;;;;;;;;5072113;28;20037;-76
2022/06/24 04:26:17;;;;;;;8.02;4.90;;;;;;;;;;5071548;28;20028;-75
2022/06/24 04:28:43;;;;;;;12.75;5.63;;;;;;;;;;5072812;28;20032;-75
2022/06/24 04:31:09;;;;;;;6.68;4.47;;;;;;;;;;5072908;28;20032;-77
2022/06/24 04:33:34;;;;;;;14.10;6.22;;;;;;;;;;5071623;28;20098;-75
2022/06/24 04:36:00;;;;;;;7.53;4.78;;;;;;;;;;5071608;28;20024;-76
2022/06/24 04:38:26;;;;;;;12.75;5.57;;;;;;;;;;5071139;28;20054;-75
2022/06/24 04:40:52;;;;;;;11.73;6.03;;;;;;;;;;5071375;28;20078;-76
2022/06/24 04:43:17;;;;;;;8.07;5.28;;;;;;;;;;5071544;28;20082;-75
2022/06/24 04:45:44;;;;;;;10.68;6.43;;;;;;;;;;5070916;28;20032;-74
2022/06/24 04:48:10;;;;;;;10.38;5.13;;;;;;;;;;5071251;28;20025;-75
2022/06/24 04:50:35;;;;;;;11.13;5.85;;;;;;;;;;5072214;28;20380;-75
2022/06/24 04:53:01;;;;;;;11.25;4.95;;;;;;;;;;5059311;28;20029;-73
2022/06/24 04:55:26;;;;;;;6.32;5.25;;;;;;;;;;5042217;28;20033;-74
2022/06/24 04:57:55;;;;;;;6.30;5.13;;;;;;;;;;5047793;28;20110;-75
2022/06/24 05:00:21;;;;;;;10.18;4.65;;;;;;;;;;5035924;28;20040;-76
2022/06/24 05:02:47;;;;;;;8.98;5.05;;;;;;;;;;5050934;28;20025;-75
2022/06/24 05:05:14;;;;;;;6.20;5.22;;;;;;;;;;5049425;28;20145;-76
2022/06/24 05:07:40;;;;;;;5.28;4.68;;;;;;;;;;5040981;28;20040;-76
2022/06/24 05:10:07;;;;;;;9.93;4.95;;;;;;;;;;5051790;28;20033;-76
2022/06/24 05:12:32;;;;;;;12.10;4.38;;;;;;;;;;5051409;28;20029;-74
2022/06/24 05:14:58;;;;;;;10.77;5.30;;;;;;;;;;5047296;28;20025;-75
2022/06/24 05:17:24;;;;;;;7.32;4.47;;;;;;;;;;5048206;28;20554;-74
2022/06/24 05:19:53;;;;;;;14.40;5.25;;;;;;;;;;5064059;28;20207;-74
2022/06/24 05:22:20;;;;;;;6.50;4.72;;;;;;;;;;5051524;28;20125;-74
2022/06/24 05:24:46;;;;;;;20.08;6.00;;;;;;;;;;5050001;28;20123;-74
2022/06/24 05:27:11;;;;;;;17.38;4.95;;;;;;;;;;5050252;28;20029;-75
2022/06/24 05:29:38;;;;;;;18.67;5.63;;;;;;;;;;5050907;28;20025;-76
2022/06/24 05:32:04;;;;;;;15.75;5.13;;;;;;;;;;5049835;28;20040;-75
2022/06/24 05:34:30;;;;;;;12.07;5.60;;;;;;;;;;5051646;28;20028;-76
2022/06/24 05:36:55;;;;;;;9.27;4.78;;;;;;;;;;5051435;28;20400;-75
2022/06/24 05:39:21;;;;;;;5.75;4.70;;;;;;;;;;5049132;28;20377;-75
2022/06/24 05:41:47;;;;;;;11.60;5.40;;;;;;;;;;5050251;28;20344;-75
2022/06/24 05:44:13;;;;;;;11.07;5.45;;;;;;;;;;5054301;28;20060;-76
2022/06/24 05:46:40;;;;;;;9.85;4.63;;;;;;;;;;5048538;28;20031;-74
2022/06/24 05:49:07;;;;;;;10.57;4.53;;;;;;;;;;5028049;28;20032;-75
2022/06/24 05:51:35;;;;;;;9.00;4.93;;;;;;;;;;5033021;28;20441;-76
2022/06/24 05:56:45;;;;;;;9.90;4.90;;;;;;;;;;5031649;28;20072;-75
2022/06/24 05:59:11;;;;;;;11.75;4.80;;;;;;;;;;5026880;28;20037;-74
2022/06/24 06:01:38;;;;;;;8.10;4.78;;;;;;;;;;5030159;28;20031;-75
2022/06/24 06:04:04;;;;;;;10.98;5.35;;;;;;;;;;5030240;28;20037;-76
2022/06/24 06:06:30;;;;;;;50.38;7.82;;;;;;;;;;5032421;28;20033;-75
2022/06/24 06:08:57;;;;;;;10.13;4.95;;;;;;;;;;5025272;28;20101;-76
2022/06/24 06:11:25;;;;;;;16.30;5.75;;;;;;;;;;5030624;28;20021;-75
2022/06/24 06:13:52;;;;;;;10.93;4.55;;;;;;;;;;5027385;28;20038;-75
2022/06/24 06:16:19;;;;;;;12.15;5.55;;;;;;;;;;5028895;28;20033;-76
2022/06/24 06:18:45;;;;;;;8.55;4.85;;;;;;;;;;5028647;28;20096;-75
2022/06/24 06:21:12;;;;;;;10.27;5.22;;;;;;;;;;5011627;28;20464;-75
2022/06/24 06:23:40;;;;;;;10.73;4.93;;;;;;;;;;5018513;28;20041;-74
2022/06/24 06:26:08;;;;;;;11.25;5.25;;;;;;;;;;5028415;28;20032;-74
2022/06/24 06:28:36;;;;;;;7.05;5.00;;;;;;;;;;5025302;28;20092;-74
2022/06/24 06:31:02;;;;;;;9.73;4.85;;;;;;;;;;5010383;28;20041;-77
2022/06/24 06:33:30;;;;;;;10.55;4.45;;;;;;;;;;5029269;28;20116;-74
2022/06/24 06:36:06;;;;;;;6.05;4.15;;;;;;;;;;5030005;28;20407;-76
2022/06/24 06:38:32;;;;;;;6.85;4.20;;;;;;;;;;5024451;28;20488;-75
2022/06/24 06:40:58;;;;;;;9.07;4.18;;;;;;;;;;5027745;28;20241;-75
2022/06/24 06:43:24;;;;;;;10.27;4.03;;;;;;;;;;5010950;28;20124;-76
2022/06/24 06:45:49;;;;;;;5.00;4.45;;;;;;;;;;5027613;28;20036;-75
2022/06/24 06:48:15;;;;;;;10.43;4.35;;;;;;;;;;5024708;28;20475;-75
2022/06/24 06:50:40;;;;;;;11.25;4.53;;;;;;;;;;5030308;28;20037;-75
2022/06/24 06:53:06;;;;;;;8.55;4.43;;;;;;;;;;5051080;28;20083;-75
2022/06/24 06:55:31;;;;;;;10.68;3.78;;;;;;;;;;5029073;28;20114;-75
2022/06/24 06:57:57;;;;;;;6.03;3.60;;;;;;;;;;5022202;28;20301;-76
2022/06/24 07:00:22;;;;;;;9.55;4.15;;;;;;;;;;5026022;28;20033;-74
2022/06/24 07:02:48;;;;;;;9.25;4.38;;;;;;;;;;5032716;28;20025;-76
2022/06/24 07:05:14;;;;;;;10.25;5.43;;;;;;;;;;5041115;28;20059;-76
2022/06/24 07:07:40;;;;;;;7.80;4.03;;;;;;;;;;5009309;28;20042;-75
2022/06/24 07:10:06;;;;;;;10.45;8.32;;;;;;;;;;5029061;28;20082;-74
2022/06/24 07:12:32;;;;;;;7.03;4.10;;;;;;;;;;5010337;28;20079;-75
2022/06/24 07:14:57;;;;;;;5.72;3.95;;;;;;;;;;5028152;28;20422;-75
2022/06/24 07:17:23;;;;;;;6.55;3.95;;;;;;;;;;5026643;28;20041;-75
2022/06/24 07:19:49;;;;;;;17.13;4.60;;;;;;;;;;5026919;28;20060;-76
2022/06/24 07:22:15;;;;;;;6.60;3.60;;;;;;;;;;5020069;28;20033;-75
2022/06/24 07:24:44;;;;;;;4.72;3.38;;;;;;;;;;5026927;28;20071;-74
2022/06/24 07:27:18;;;;;;;9.60;3.78;;;;;;;;;;5023905;28;20547;-75
2022/06/24 07:29:44;;;;;;;4.93;3.30;;;;;;;;;;5026150;28;20033;-76
2022/06/24 07:32:11;;;;;;;10.40;2.63;;;;;;;;;;5023491;28;20017;-75
2022/06/24 07:34:38;;;;;;;7.90;3.50;;;;;;;;;;5021991;28;20610;-75
2022/06/24 07:37:04;;;;;;;5.65;3.63;;;;;;;;;;5050207;28;20034;-76
2022/06/24 07:39:30;;;;;;;5.28;3.72;;;;;;;;;;5024631;28;21042;-75
2022/06/24 07:41:56;;;;;;;7.18;3.13;;;;;;;;;;5026656;28;20033;-75
2022/06/24 07:44:23;;;;;;;7.65;3.70;;;;;;;;;;5011712;28;20032;-76
2022/06/24 07:46:49;;;;;;;7.43;3.55;;;;;;;;;;5028708;28;20083;-75
2022/06/24 07:49:27;;;;;;;8.38;3.58;;;;;;;;;;5025786;28;20025;-76
2022/06/24 07:51:52;;;;;;;4.88;3.22;;;;;;;;;;5027032;28;20025;-76
2022/06/24 07:54:18;;;;;;;5.80;3.78;;;;;;;;;;5029403;28;20548;-76
2022/06/24 07:56:57;;;;;;;9.02;3.80;;;;;;;;;;5027169;28;20110;-76
2022/06/24 07:59:30;;;;;;;7.15;3.53;;;;;;;;;;5025132;28;20116;-76
2022/06/24 08:01:57;;;;;;;6.35;4.10;;;;;;;;;;5025941;28;20025;-76
2022/06/24 08:04:24;;;;;;;6.18;3.72;;;;;;;;;;5026702;28;20092;-76
2022/06/24 08:06:50;;;;;;;5.80;4.10;;;;;;;;;;5029809;28;20111;-76
2022/06/24 08:09:17;;;;;;;6.97;3.40;;;;;;;;;;5024631;28;20539;-75
2022/06/24 08:11:43;;;;;;;11.23;3.78;;;;;;;;;;5024270;28;20036;-76
2022/06/24 08:14:09;;;;;;;8.45;3.88;;;;;;;;;;5029680;28;20037;-76
2022/06/24 08:16:35;;;;;;;4.72;3.17;;;;;;;;;;5028581;28;20060;-75
2022/06/24 08:19:01;;;;;;;9.63;4.90;;;;;;;;;;5007919;28;20117;-75
2022/06/24 08:21:27;;;;;;;11.68;3.85;;;;;;;;;;5027263;28;20920;-75
2022/06/24 08:23:52;;;;;;;7.85;3.70;;;;;;;;;;5027966;28;20116;-76
2022/06/24 08:26:21;;;;;;;3.22;2.92;;;;;;;;;;5027788;28;20072;-76
2022/06/24 08:28:47;;;;;;;6.78;3.33;;;;;;;;;;5022300;28;20029;-76
2022/06/24 08:31:12;;;;;;;8.07;4.15;;;;;;;;;;5028885;28;20560;-76
2022/06/24 08:33:38;;;;;;;7.18;3.50;;;;;;;;;;5024038;28;20039;-76
2022/06/24 08:36:04;;;;;;;8.63;3.78;;;;;;;;;;5051562;28;20143;-76
2022/06/24 08:38:31;;;;;;;6.95;3.58;;;;;;;;;;5025884;28;20477;-74
2022/06/24 08:41:00;;;;;;;7.40;3.70;;;;;;;;;;5026709;28;20549;-77
2022/06/24 08:43:30;;;;;;;76.13;15.85;;;;;;;;;;5025663;28;20041;-75
2022/06/24 08:45:57;;;;;;;20.30;4.25;;;;;;;;;;5010765;28;20430;-76
2022/06/24 08:48:25;;;;;;;6.78;3.25;;;;;;;;;;5022388;28;20061;-76
2022/06/24 08:50:51;;;;;;;5.43;3.33;;;;;;;;;;5028287;28;20037;-77
2022/06/24 08:53:21;;;;;;;16.15;5.05;;;;;;;;;;5031301;28;20033;-76
2022/06/24 08:55:50;;;;;;;6.55;3.35;;;;;;;;;;5032949;28;20413;-77
2022/06/24 08:58:18;;;;;;;6.28;3.47;;;;;;;;;;5028077;28;20048;-75
2022/06/24 09:00:44;;;;;;;10.25;3.50;;;;;;;;;;5030356;28;20033;-76
2022/06/24 09:03:10;;;;;;;9.07;3.60;;;;;;;;;;5029863;28;20036;-75
2022/06/24 09:05:36;;;;;;;15.20;4.55;;;;;;;;;;5032987;28;20628;-76
2022/06/24 09:08:14;;;;;;;9.30;4.05;;;;;;;;;;5029743;28;20065;-76
2022/06/24 09:10:42;;;;;;;4.28;3.78;;;;;;;;;;5034503;28;20056;-77
2022/06/24 09:13:19;;;;;;;7.25;3.67;;;;;;;;;;5034347;28;20040;-75
2022/06/24 09:15:51;;;;;;;11.20;3.13;;;;;;;;;;5030803;28;20535;-75
2022/06/24 09:18:22;;;;;;;9.68;3.47;;;;;;;;;;5025592;28;20053;-75
2022/06/24 09:20:55;;;;;;;6.18;3.08;;;;;;;;;;5029207;28;20568;-75
2022/06/24 09:23:21;;;;;;;15.90;5.25;;;;;;;;;;5029960;28;20044;-76
2022/06/24 09:26:02;;;;;;;5.30;4.00;;;;;;;;;;5031089;28;20033;-75
2022/06/24 09:28:32;;;;;;;7.13;3.67;;;;;;;;;;5051163;28;20033;-76
2022/06/24 09:31:08;;;;;;;3.53;3.15;;;;;;;;;;5033741;28;20033;-76
2022/06/24 09:33:42;;;;;;;9.07;3.75;;;;;;;;;;5029732;28;20024;-76
2022/06/24 09:36:10;;;;;;;7.40;3.70;;;;;;;;;;5027424;28;20041;-77
2022/06/24 09:38:57;;;;;;;5.35;3.00;;;;;;;;;;5026243;28;20024;-76
2022/06/24 09:41:48;;;;;;;4.15;3.08;;;;;;;;;;5030789;28;20029;-76
2022/06/24 09:44:16;;;;;;;9.48;3.30;;;;;;;;;;5031591;28;20056;-76
2022/06/24 09:46:42;;;;;;;11.02;4.00;;;;;;;;;;5029733;28;20480;-76
2022/06/24 09:49:14;;;;;;;6.93;3.75;;;;;;;;;;5032629;28;20033;-76
2022/06/24 09:51:44;;;;;;;5.75;3.40;;;;;;;;;;5033303;28;20073;-76
2022/06/24 09:54:11;;;;;;;6.38;3.70;;;;;;;;;;5040479;28;20037;-77
2022/06/24 09:56:38;;;;;;;6.95;3.47;;;;;;;;;;5031562;28;20037;-75
2022/06/24 10:01:50;;;;;;;5.80;3.58;;;;;;;;;;5033326;28;20059;-77
2022/06/24 10:04:20;;;;;;;8.13;4.05;;;;;;;;;;5029239;28;20033;-76
2022/06/24 10:06:49;;;;;;;13.63;3.70;;;;;;;;;;5031682;28;20063;-78
2022/06/24 10:09:23;;;;;;;6.50;3.90;;;;;;;;;;5028458;28;20041;-77
2022/06/24 10:11:50;;;;;;;3.97;3.63;;;;;;;;;;5029125;28;20377;-76
2022/06/24 10:14:16;;;;;;;6.10;3.70;;;;;;;;;;5030635;28;20025;-76
2022/06/24 10:16:43;;;;;;;11.00;4.07;;;;;;;;;;5032156;28;20044;-75
2022/06/24 10:19:10;;;;;;;4.97;3.33;;;;;;;;;;5027825;28;20059;-77
2022/06/24 10:21:38;;;;;;;10.70;3.50;;;;;;;;;;5029153;28;20032;-76
2022/06/24 10:24:13;;;;;;;5.20;4.05;;;;;;;;;;5026565;28;20040;-76
2022/06/24 10:26:41;;;;;;;9.90;4.43;;;;;;;;;;5030530;28;20067;-76
2022/06/24 10:29:07;;;;;;;7.40;4.60;;;;;;;;;;5027617;28;20033;-76
2022/06/24 10:31:41;;;;;;;7.30;3.10;;;;;;;;;;5024743;28;20954;-75
2022/06/24 10:34:11;;;;;;;6.35;3.58;;;;;;;;;;5032139;28;20041;-77
2022/06/24 10:36:37;;;;;;;5.45;3.70;;;;;;;;;;5030641;28;20036;-76
2022/06/24 10:39:15;;;;;;;11.13;3.85;;;;;;;;;;5027650;28;20059;-77
2022/06/24 10:41:41;;;;;;;10.48;4.38;;;;;;;;;;5031009;28;20024;-76
2022/06/24 10:44:35;;;;;;;6.65;4.03;;;;;;;;;;5036712;28;20367;-76
2022/06/24 10:47:13;;;;;;;7.25;4.13;;;;;;;;;;5030866;28;20035;-77
2022/06/24 10:50:13;;;;;;;5.28;3.88;;;;;;;;;;5034163;28;20033;-78
2022/06/24 10:52:48;;;;;;;9.18;3.28;;;;;;;;;;5034762;28;20163;-79
2022/06/24 10:55:34;;;;;;;29.17;6.03;;;;;;;;;;5030856;28;20493;-78
2022/06/24 10:58:04;;;;;;;7.63;4.00;;;;;;;;;;5029387;28;20508;-77
2022/06/24 11:00:48;;;;;;;5.78;3.33;;;;;;;;;;5030979;28;20142;-77
2022/06/24 11:03:38;;;;;;;6.32;3.67;;;;;;;;;;5030434;28;20037;-76
2022/06/24 11:06:04;;;;;;;8.77;3.30;;;;;;;;;;5026985;28;20151;-77
2022/06/24 11:08:36;;;;;;;4.90;3.95;;;;;;;;;;5026079;28;20040;-77
2022/06/24 11:11:02;;;;;;;5.45;4.30;;;;;;;;;;5029647;28;20041;-76
2022/06/24 11:13:28;;;;;;;9.35;5.88;;;;;;;;;;5029768;28;20705;-79
2022/06/24 11:15:58;;;;;;;9.48;4.25;;;;;;;;;;5035896;28;20025;-77
2022/06/24 11:18:35;;;;;;;4.03;3.70;;;;;;;;;;5031219;28;20055;-77
2022/06/24 11:21:19;;;;;;;8.35;3.78;;;;;;;;;;5032936;28;20266;-77
2022/06/24 11:23:47;;;;;;;6.45;3.58;;;;;;;;;;5029022;28;20055;-77
2022/06/24 11:26:19;;;;;;;8.90;3.80;;;;;;;;;;5028412;28;20029;-76
2022/06/24 11:28:55;;;;;;;7.32;4.55;;;;;;;;;;5023854;28;20102;-76
2022/06/24 11:31:24;;;;;;;4.68;4.07;;;;;;;;;;5026274;28;20032;-77
2022/06/24 11:33:58;;;;;;;10.38;4.20;;;;;;;;;;5029593;28;20107;-75
2022/06/24 11:36:26;;;;;;;7.75;4.00;;;;;;;;;;5028161;28;20029;-76
2022/06/24 11:39:02;;;;;;;7.03;3.88;;;;;;;;;;5024722;28;20025;-78
2022/06/24 11:41:39;;;;;;;8.10;3.92;;;;;;;;;;5027970;28;20017;-77
2022/06/24 11:44:04;;;;;;;8.48;4.43;;;;;;;;;;5028644;28;20029;-76
2022/06/24 11:46:32;;;;;;;7.80;4.13;;;;;;;;;;5029330;28;20465;-77
2022/06/24 11:49:11;;;;;;;7.68;4.93;;;;;;;;;;5011994;28;20116;-77
2022/06/24 11:51:38;;;;;;;5.45;3.92;;;;;;;;;;5026088;28;20501;-76
2022/06/24 11:54:08;;;;;;;10.23;5.50;;;;;;;;;;5027393;28;20033;-77
2022/06/24 11:56:55;;;;;;;7.20;3.92;;;;;;;;;;5030033;28;20515;-77
2022/06/24 11:59:22;;;;;;;10.43;3.50;;;;;;;;;;5032234;28;20384;-76
2022/06/24 12:01:48;;;;;;;4.65;3.70;;;;;;;;;;5041328;28;20048;-78
2022/06/24 12:04:15;;;;;;;5.50;4.07;;;;;;;;;;5044442;28;20044;-76
2022/06/24 12:06:44;;;;;;;7.22;4.05;;;;;;;;;;5037962;28;20390;-76
2022/06/24 12:09:11;;;;;;;7.43;3.65;;;;;;;;;;5041931;28;20506;-78
2022/06/24 12:11:42;;;;;;;8.65;4.03;;;;;;;;;;5041233;28;20036;-76
2022/06/24 12:14:08;;;;;;;;;;;;;;;;;;5044599;28;20338;-78
2022/06/24 12:16:57;;;;;;;3.70;3.03;;;;;;;;;;5046006;28;20400;-75
2022/06/24 12:19:24;;;;;;;13.30;7.63;;;;;;;;;;5045028;28;20064;-78
2022/06/24 12:21:50;;;;;;;5.88;4.00;;;;;;;;;;5048803;28;20028;-76
2022/06/24 12:24:26;;;;;;;10.40;4.72;;;;;;;;;;5051052;28;20448;-76
2022/06/24 12:26:56;;;;;;;5.97;4.00;;;;;;;;;;5049049;28;20207;-76
2022/06/24 12:29:27;;;;;;;4.43;3.65;;;;;;;;;;5022330;28;20489;-75
2022/06/24 12:31:54;;;;;;;5.90;3.95;;;;;;;;;;5044782;28;20036;-76
2022/06/24 12:34:32;;;;;;;6.80;3.30;;;;;;;;;;5039681;28;20109;-73
2022/06/24 12:37:19;;;;;;;5.47;3.25;;;;;;;;;;5049212;28;20025;-74
2022/06/24 12:39:47;;;;;;;6.22;3.80;;;;;;;;;;5048822;28;20645;-73
2022/06/24 12:42:18;;;;;;;6.18;3.40;;;;;;;;;;5048842;28;20017;-75
2022/06/24 12:44:46;;;;;;;7.75;3.40;;;;;;;;;;5047257;28;20035;-74
2022/06/24 12:52:50;;;;;;;;;;;;;;;;;;5050493;28;20028;-74
2022/06/24 12:55:18;;;;;;;14.18;5.03;;;;;;;;;;5050245;28;19912;-73
2022/06/24 12:57:45;;;;;;;7.03;4.05;;;;;;;;;;5061032;28;20485;-74
2022/06/24 13:00:12;;;;;;;11.25;3.70;;;;;;;;;;5051018;28;20131;-74
2022/06/24 13:02:52;;;;;;;9.38;4.18;;;;;;;;;;5050198;28;20517;-74
2022/06/24 13:05:19;;;;;;;8.90;4.15;;;;;;;;;;5045321;28;20029;-75
2022/06/24 13:07:46;;;;;;;13.90;4.55;;;;;;;;;;5048564;28;20035;-74
2022/06/24 13:10:11;;;;;;;5.00;4.20;;;;;;;;;;5050051;28;20032;-74
2022/06/24 13:12:40;;;;;;;7.85;5.30;;;;;;;;;;5048472;28;20551;-76
2022/06/24 13:15:07;;;;;;;10.07;5.32;;;;;;;;;;5045290;28;20064;-76
2022/06/24 13:17:34;;;;;;;10.98;5.03;;;;;;;;;;5047911;28;20017;-74
2022/06/24 13:20:00;;;;;;;13.55;5.93;;;;;;;;;;5048530;28;20080;-74
2022/06/24 13:22:27;;;;;;;7.53;4.47;;;;;;;;;;5050571;28;20051;-75
2022/06/24 13:24:53;;;;;;;5.38;4.80;;;;;;;;;;5051819;28;20087;-75
2022/06/24 13:27:20;;;;;;;7.97;4.65;;;;;;;;;;5050850;28;20029;-74
2022/06/24 13:29:46;;;;;;;5.80;5.18;;;;;;;;;;5049292;28;20378;-75
2022/06/24 13:32:11;;;;;;;10.85;6.72;;;;;;;;;;5048478;28;20044;-74
2022/06/24 13:34:37;;;;;;;5.80;5.05;;;;;;;;;;5049885;28;20074;-74
2022/06/24 13:37:02;;;;;;;6.50;5.25;;;;;;;;;;5048823;28;20086;-74
2022/06/24 13:39:28;;;;;;;17.30;5.82;;;;;;;;;;5045574;28;20044;-74
2022/06/24 13:41:54;;;;;;;9.90;5.30;;;;;;;;;;5049514;28;20036;-73
2022/06/24 13:44:20;;;;;;;7.05;4.75;;;;;;;;;;5049069;28;20587;-74
2022/06/24 13:46:46;;;;;;;7.57;4.65;;;;;;;;;;5050498;28;20174;-74
2022/06/24 13:49:12;;;;;;;14.23;6.85;;;;;;;;;;5050204;28;20038;-72
2022/06/24 13:51:38;;;;;;;14.88;8.25;;;;;;;;;;5052353;28;20024;-74
2022/06/24 13:54:03;;;;;;;10.40;7.43;;;;;;;;;;5050300;28;20092;-74
2022/06/24 13:56:31;;;;;;;9.02;7.32;;;;;;;;;;5050518;28;20115;-74
2022/06/24 13:58:56;;;;;;;10.20;8.48;;;;;;;;;;5049323;28;20033;-74
2022/06/24 14:01:22;;;;;;;11.75;7.28;;;;;;;;;;5046448;28;20021;-73
2022/06/24 14:03:48;;;;;;;11.63;7.63;;;;;;;;;;5051145;28;20021;-74
2022/06/24 14:06:15;;;;;;;12.52;7.60;;;;;;;;;;5048883;28;20044;-74
2022/06/24 14:08:43;;;;;;;11.88;7.50;;;;;;;;;;5049803;28;20028;-74
2022/06/24 14:11:08;;;;;;;12.00;7.47;;;;;;;;;;5048617;28;20048;-74
2022/06/24 14:13:34;;;;;;;11.02;6.63;;;;;;;;;;5047366;28;20076;-73
2022/06/24 14:15:59;;;;;;;6.30;5.70;;;;;;;;;;5049291;28;20033;-72
2022/06/24 14:18:25;;;;;;;10.23;5.43;;;;;;;;;;5049371;28;20036;-75
2022/06/24 14:20:51;;;;;;;14.07;10.18;;;;;;;;;;5045544;28;20463;-74
2022/06/24 14:26:00;;;;;;;6.85;5.13;;;;;;;;;;5030808;28;20036;-73
2022/06/24 14:28:26;;;;;;;5.80;5.30;;;;;;;;;;5029946;28;20173;-74
2022/06/24 14:30:51;;;;;;;9.55;5.65;;;;;;;;;;5046008;28;20064;-73
2022/06/24 14:33:17;;;;;;;7.18;5.50;;;;;;;;;;5030648;28;20037;-75
2022/06/24 14:35:43;;;;;;;8.13;5.90;;;;;;;;;;5045896;28;20025;-73
2022/06/24 14:40:52;;;;;;;8.52;5.38;;;;;;;;;;5030738;28;20144;-73
2022/06/24 14:43:18;;;;;;;6.15;5.28;;;;;;;;;;5049007;28;20107;-73
2022/06/24 14:45:44;;;;;;;7.47;6.07;;;;;;;;;;5049838;28;20025;-73
2022/06/24 14:48:10;;;;;;;7.15;5.75;;;;;;;;;;5051740;28;20464;-73
2022/06/24 14:50:35;;;;;;;5.75;5.07;;;;;;;;;;5048658;28;20497;-75
2022/06/24 14:53:01;;;;;;;7.28;4.97;;;;;;;;;;5046486;28;20743;-74
2022/06/24 14:55:28;;;;;;;10.88;6.65;;;;;;;;;;5049252;28;20103;-75
2022/06/24 14:57:57;;;;;;;6.32;5.60;;;;;;;;;;5048878;28;20099;-73
2022/06/24 15:00:26;;;;;;;14.48;6.65;;;;;;;;;;5049942;28;20123;-74
2022/06/24 15:02:53;;;;;;;9.85;5.90;;;;;;;;;;5050888;28;20021;-74
2022/06/24 15:05:19;;;;;;;6.35;5.28;;;;;;;;;;5048487;28;20037;-74
2022/06/24 15:07:46;;;;;;;8.13;4.90;;;;;;;;;;5049816;28;20440;-73